CDG weather

Charles de Gaulle International Airport
Paris, Île-de-France, France

Public forecast

Using degrees Celsius for public forecast. Weather courtesy of forecast.io.

Current aviation weather report (METAR) for Charles de Gaulle International Airport

Retrieved 2019/10/20 20:30 UTC (0 seconds ago):

LFPG 202030Z 02010KT 5000 -DZ SCT004 BKN005 11/10 Q1007 NOSIG

Aviation forecast (TAF) for Charles de Gaulle International Airport

Retrieved 2019/10/20 18:21 UTC (2 hours ago):

TAF LFPG 201700Z 2018/2124 03010KT 6000 BKN007 BKN013 TX15/2114Z TN08/2123Z TEMPO 2018/2106 3500 -RADZ TEMPO 2021/2024 BKN004 BECMG 2102/2104 29005KT PROB40 TEMPO 2101/2106 2000 RADZ BKN002 BECMG 2107/2109 BKN011 BECMG 2110/2112 BKN020 BECMG 2121/2123 3000 BR